White Bear Lake, MN

11:59 AM CDT on September 02, 2015 (GMT -0500)
Bald Eagle Lk. | | Change Station
CLOSE
Current Station
Personal Weather Station
Location: St Paul, MN
Elevation: 942 ft
Nearby Weather Stations

Elev 942 ft 45.10 °N, 93.02 °W | Updated 7 minutes ago

Overcast
Overcast
71.1 °F
Feels Like 71.1 °F
N
1.0
Wind Variable Wind from SSW
Gusts 1.0 mph

Today
High -- | Low -- °F
--% Chance of Precip.
Yesterday
High -- | Low -- °F
Precip. -- in
6:34 AM 7:47 PM
Waning Gibbous, 79% visible
Pressure 29.94 in
Visibility 10.0 miles
Clouds Overcast 3300 ft
Dew Point 68 °F
Humidity 90%
Rainfall 0.44 in
Snow Depth Not available.
UV 2 out of 12
Pollen 9.20 out of 12
Air Quality Not available.
Flu Activity Not available.
METAR K21D 021655Z AUTO 09004KT 10SM VCTS OVC033 21/20 A2994 RMK AO2 LTG DSNT E
Pressure 29.94 in
Visibility 10.0 miles
Clouds Overcast 3300 ft
Dew Point 68 °F
Humidity 90%
Rainfall 0.44 in
Snow Depth Not available.
UV 2 out of 12
Pollen 9.20 out of 12
Air Quality Not available.
Flu Activity Not available.
METAR K21D 021655Z AUTO 09004KT 10SM VCTS OVC033 21/20 A2994 RMK AO2 LTG DSNT E

10-Day Weather Forecast

×

Almanac

Astronomy

Sep. 02, 2015 Rise Set
Actual Time
Civil Twilight
Nautical Twilight
Astronomical Twilight
Moon
Length of Visible Light
Length of Day
Tomorrow will be .
, % of the Moon is Illuminated

Today's Extremes

State Highs State Lows

Community

WunderPhotos

Upload Photos

1,851,783 photos uploaded!

WunderBlogs® & News

Nearby

Air Quality

  Air Quality AQ Index Pollutant
Not available.

Snow Depth

Station Depth Elevation

Earthquake Activity

City Distance Mag. Time & Date
Minimum magnitude displayed is 2.5.

Coastal Water Temperatures

Place Temperature

Stations

Nearby Weather Stations

Station Location Temp. Windchill Dew Point Humidity Wind Precip. Elev Updated Type